Terminal Aerodrome Forecast
Issued by NWS Melbourne, FL

Home | Current Version | Previous Version | Text Only | Print | Product List | Glossary On
Versions: 1 2 3 4 5 6 7 8 9 10 11 12
000
FTUS42 KMLB 221142
TAFDAB
TAF
KDAB 221142Z 2212/2312 00000KT P6SM FEW025 SCT050
     FM221500 09009KT P6SM SCT035
     FM230000 08003KT P6SM FEW030=

USA.gov is the U.S. government's official web portal to all federal, state and local government web resources and services.